Time;durP1;ratioP1;P1;durP2;ratioP2;P2;SDS_P1;SDS_P2;PMS_P1;PMS_P2;Temp;Humidity;BMP_temperature;BMP_pressure;BME280_temperature;BME280_humidity;BME280_pressure;Samples;Min_cycle;Max_cycle;Signal;HPM_P1;HPM_P2
2023/07/03 00:01:36;;;;;;;9.93;3.53;;;19.70;45.10;;;;;;4876324;29;20458;-51
2023/07/03 00:04:10;;;;;;;8.55;3.42;;;19.70;45.30;;;;;;4878669;29;20053;-48
2023/07/03 00:06:40;;;;;;;;;;;19.70;45.30;;;;;;4877793;29;20811;-51
2023/07/03 00:09:09;;;;;;;7.18;2.97;;;19.70;44.90;;;;;;4870420;29;19923;-49
2023/07/03 00:11:36;;;;;;;6.28;2.42;;;19.60;45.20;;;;;;4877317;29;20108;-51
2023/07/03 00:14:04;;;;;;;8.85;2.92;;;19.60;45.30;;;;;;4878827;29;20691;-51
2023/07/03 00:16:35;;;;;;;8.25;3.15;;;19.60;45.70;;;;;;4873658;29;20051;-49
2023/07/03 00:19:03;;;;;;;8.75;2.83;;;19.50;45.70;;;;;;4878107;29;20563;-48
2023/07/03 00:21:43;;;;;;;8.70;2.47;;;19.50;46.00;;;;;;4877293;29;20052;-50
2023/07/03 00:24:13;;;;;;;6.15;2.45;;;19.50;46.00;;;;;;4877389;29;20120;-48
2023/07/03 00:26:40;;;;;;;10.43;2.88;;;19.50;46.10;;;;;;4877310;29;20052;-48
2023/07/03 00:29:22;;;;;;;7.20;2.95;;;19.50;46.10;;;;;;4860151;29;20053;-47
2023/07/03 00:31:49;;;;;;;8.50;3.08;;;19.50;46.10;;;;;;4865864;29;20050;-50
2023/07/03 00:34:18;;;;;;;6.78;2.60;;;19.50;46.20;;;;;;4875137;29;20632;-50
2023/07/03 00:36:47;;;;;;;11.10;3.72;;;19.50;46.20;;;;;;4877494;29;20112;-48
2023/07/03 00:39:17;;;;;;;7.95;2.78;;;19.50;46.30;;;;;;4876217;29;20045;-51
2023/07/03 00:41:49;;;;;;;5.18;2.60;;;19.40;46.40;;;;;;4870889;29;20043;-47
2023/07/03 00:44:19;;;;;;;8.32;2.95;;;19.40;46.50;;;;;;4876785;29;20061;-47
2023/07/03 00:46:48;;;;;;;7.85;2.88;;;19.40;46.70;;;;;;4876936;29;20056;-51
2023/07/03 00:49:17;;;;;;;8.23;2.67;;;19.40;46.60;;;;;;4860803;29;20042;-48
2023/07/03 00:51:53;;;;;;;15.15;3.80;;;19.30;46.60;;;;;;4869127;29;20052;-51
2023/07/03 00:54:22;;;;;;;9.13;3.22;;;19.30;47.00;;;;;;4859741;29;20063;-48
2023/07/03 00:56:57;;;;;;;9.65;3.17;;;19.30;46.80;;;;;;4868179;29;20052;-50
2023/07/03 00:59:27;;;;;;;10.35;3.15;;;19.20;46.90;;;;;;4879249;29;20692;-49
2023/07/03 01:02:18;;;;;;;10.77;3.28;;;19.20;46.90;;;;;;4874077;29;20108;-48
2023/07/03 01:05:01;;;;;;;5.85;2.50;;;19.20;47.40;;;;;;4877376;29;20044;-47
2023/07/03 01:07:31;;;;;;;12.63;3.55;;;19.10;47.50;;;;;;4877123;29;20055;-51
2023/07/03 01:10:04;;;;;;;;;;;19.10;47.50;;;;;;4877110;29;20047;-49
2023/07/03 01:12:35;;;;;;;5.60;2.67;;;19.10;47.00;;;;;;4871820;29;19924;-51
2023/07/03 01:15:08;;;;;;;9.18;3.33;;;19.10;47.40;;;;;;4876358;29;20048;-51
2023/07/03 01:17:50;;;;;;;11.93;3.63;;;19.00;47.60;;;;;;4860162;29;20541;-50
2023/07/03 01:20:20;;;;;;;12.87;3.17;;;19.00;47.80;;;;;;4872089;29;20061;-50
2023/07/03 01:23:13;;;;;;;8.40;3.95;;;19.00;47.60;;;;;;4846466;29;20286;-46
2023/07/03 01:25:42;;;;;;;12.63;4.47;;;19.00;47.80;;;;;;4876140;29;20484;-48
2023/07/03 01:28:12;;;;;;;9.35;2.45;;;19.00;47.90;;;;;;4877095;29;20168;-50
2023/07/03 01:30:44;;;;;;;10.43;3.63;;;19.00;48.10;;;;;;4876617;29;20045;-52
2023/07/03 01:33:21;;;;;;;7.60;3.08;;;19.00;48.20;;;;;;4866260;29;20046;-51
2023/07/03 01:35:49;;;;;;;10.95;3.28;;;19.00;48.20;;;;;;4859199;29;20057;-50
2023/07/03 01:38:20;;;;;;;10.95;4.30;;;19.00;48.30;;;;;;4860246;29;20063;-47
2023/07/03 01:40:47;;;;;;;8.85;3.38;;;18.90;48.40;;;;;;4859612;29;20091;-47
2023/07/03 01:43:17;;;;;;;7.97;3.22;;;18.90;48.50;;;;;;4859021;29;20487;-48
2023/07/03 01:45:47;;;;;;;7.70;3.00;;;18.90;48.50;;;;;;4875740;29;20618;-47
2023/07/03 01:48:21;;;;;;;12.07;3.58;;;18.90;48.90;;;;;;4874083;29;20087;-48
2023/07/03 01:50:52;;;;;;;11.02;3.72;;;18.90;49.20;;;;;;4860091;29;20101;-51
2023/07/03 01:53:31;;;;;;;16.45;4.80;;;18.80;48.90;;;;;;4870042;29;20059;-49
2023/07/03 01:56:15;;;;;;;9.63;3.40;;;18.80;49.40;;;;;;4852580;29;20068;-49
2023/07/03 01:58:50;;;;;;;8.18;3.13;;;18.80;49.40;;;;;;4873574;29;20132;-46
2023/07/03 02:01:45;;;;;;;8.73;3.88;;;18.80;49.60;;;;;;4859544;29;20045;-49
2023/07/03 02:04:30;;;;;;;8.18;2.42;;;18.80;50.00;;;;;;4871813;29;20451;-49
2023/07/03 02:07:03;;;;;;;10.85;3.95;;;18.80;50.00;;;;;;4869401;29;20041;-48
2023/07/03 02:09:33;;;;;;;11.70;4.03;;;18.80;49.70;;;;;;4877472;29;20230;-48
2023/07/03 02:12:05;;;;;;;9.00;3.65;;;18.80;49.80;;;;;;4870272;29;20109;-51
2023/07/03 02:14:35;;;;;;;8.10;2.90;;;18.80;50.10;;;;;;4859812;29;20619;-48
2023/07/03 02:17:12;;;;;;;10.55;2.83;;;18.70;50.00;;;;;;4858473;29;20052;-49
2023/07/03 02:19:40;;;;;;;4.82;2.60;;;18.70;50.10;;;;;;4857871;29;20045;-50
2023/07/03 02:22:09;;;;;;;12.95;3.25;;;18.70;50.20;;;;;;4858733;29;20524;-49
2023/07/03 02:24:40;;;;;;;12.52;3.70;;;18.80;50.50;;;;;;4871135;29;20057;-49
2023/07/03 02:27:07;;;;;;;13.95;3.88;;;18.80;50.70;;;;;;4875956;29;20120;-51
2023/07/03 02:29:35;;;;;;;10.27;3.08;;;18.70;50.60;;;;;;4873062;29;20051;-47
2023/07/03 02:32:05;;;;;;;10.82;3.38;;;18.70;50.60;;;;;;4858717;29;20091;-50
2023/07/03 02:34:41;;;;;;;10.60;3.40;;;18.70;50.70;;;;;;4860316;29;20163;-46
2023/07/03 02:37:12;;;;;;;8.18;3.40;;;18.70;50.90;;;;;;4856941;29;20059;-49
2023/07/03 02:39:41;;;;;;;6.93;3.03;;;18.70;50.90;;;;;;4874376;29;20403;-47
2023/07/03 02:42:10;;;;;;;12.10;3.53;;;18.70;51.00;;;;;;4858588;29;20045;-51
2023/07/03 02:44:42;;;;;;;12.80;3.88;;;18.70;51.00;;;;;;4875915;29;20097;-50
2023/07/03 02:47:09;;;;;;;10.43;3.15;;;18.70;51.20;;;;;;4858373;29;20060;-50
2023/07/03 02:49:39;;;;;;;10.23;3.08;;;18.70;51.30;;;;;;4859320;29;20045;-50
2023/07/03 02:52:07;;;;;;;11.85;3.70;;;18.70;51.40;;;;;;4874106;29;20136;-51
2023/07/03 02:54:41;;;;;;;6.15;2.78;;;18.70;51.40;;;;;;4851383;29;20045;-48
2023/07/03 02:57:18;;;;;;;12.90;3.72;;;18.70;51.70;;;;;;4858972;29;20430;-50
2023/07/03 02:59:50;;;;;;;11.73;3.40;;;18.70;51.60;;;;;;4872056;29;20041;-50
2023/07/03 03:02:18;;;;;;;9.15;2.95;;;18.70;51.80;;;;;;4855469;29;20093;-48
2023/07/03 03:04:49;;;;;;;12.07;3.83;;;18.70;52.00;;;;;;4875892;29;20060;-50
2023/07/03 03:07:19;;;;;;;12.18;3.95;;;18.70;52.10;;;;;;4860248;29;20128;-48
2023/07/03 03:09:48;;;;;;;8.82;3.10;;;18.70;52.20;;;;;;4873701;29;20057;-50
2023/07/03 03:12:17;;;;;;;8.95;3.20;;;18.70;52.40;;;;;;4845760;29;20054;-51
2023/07/03 03:14:46;;;;;;;12.13;3.67;;;18.60;52.40;;;;;;4857032;29;20049;-48
2023/07/03 03:17:36;;;;;;;9.27;2.80;;;18.60;52.70;;;;;;4875613;29;20478;-50
2023/07/03 03:20:04;;;;;;;13.88;4.07;;;18.60;52.50;;;;;;4841667;29;20794;-48
2023/07/03 03:22:33;;;;;;;12.32;3.70;;;18.60;52.70;;;;;;4857905;29;20186;-48
2023/07/03 03:25:00;;;;;;;8.13;3.83;;;18.60;53.00;;;;;;4857278;29;20069;-49
2023/07/03 03:27:27;;;;;;;12.45;4.10;;;18.60;52.90;;;;;;4880276;29;20124;-50
2023/07/03 03:29:53;;;;;;;11.57;4.60;;;18.50;52.90;;;;;;4878860;29;20041;-50
2023/07/03 03:32:23;;;;;;;12.00;3.45;;;18.50;53.10;;;;;;4860243;29;20064;-48
2023/07/03 03:34:55;;;;;;;13.77;3.83;;;18.50;53.30;;;;;;4878565;29;20083;-49
2023/07/03 03:37:23;;;;;;;9.70;3.22;;;18.50;53.50;;;;;;4880108;29;20555;-51
2023/07/03 03:39:51;;;;;;;10.82;3.25;;;18.50;53.50;;;;;;4856698;29;20072;-51
2023/07/03 03:42:23;;;;;;;11.88;3.10;;;18.50;53.70;;;;;;4862609;29;20049;-50
2023/07/03 03:44:49;;;;;;;8.63;3.10;;;18.40;53.50;;;;;;4878275;29;20049;-48
2023/07/03 03:47:23;;;;;;;11.20;3.70;;;18.40;54.50;;;;;;4861911;29;20054;-46
2023/07/03 03:49:50;;;;;;;14.07;3.63;;;18.40;54.00;;;;;;4860784;29;20060;-51
2023/07/03 03:52:19;;;;;;;23.20;4.57;;;18.40;54.10;;;;;;4863370;29;20056;-48
2023/07/03 03:54:48;;;;;;;11.25;4.40;;;18.40;54.20;;;;;;4863697;29;20529;-46
2023/07/03 03:57:15;;;;;;;13.27;3.67;;;18.40;54.20;;;;;;4879543;29;20087;-47
2023/07/03 03:59:46;;;;;;;11.25;3.97;;;18.40;54.40;;;;;;4846328;29;20057;-50
2023/07/03 04:02:15;;;;;;;8.20;3.60;;;18.30;54.40;;;;;;4859648;29;20395;-51
2023/07/03 04:04:41;;;;;;;11.63;3.95;;;18.30;54.40;;;;;;4848447;29;20089;-48
2023/07/03 04:07:08;;;;;;;12.07;3.72;;;18.30;54.60;;;;;;4879622;29;20502;-47
2023/07/03 04:09:45;;;;;;;17.45;4.82;;;18.30;54.70;;;;;;4877992;29;20052;-49
2023/07/03 04:12:14;;;;;;;16.17;4.78;;;18.30;55.00;;;;;;4862558;29;20116;-51
2023/07/03 04:14:42;;;;;;;12.15;3.95;;;18.30;54.90;;;;;;4877827;29;20140;-51
2023/07/03 04:17:09;;;;;;;14.88;6.47;;;18.40;55.00;;;;;;4878978;29;20124;-47
2023/07/03 04:19:40;;;;;;;11.43;3.40;;;18.40;55.00;;;;;;4868379;29;20120;-46
2023/07/03 04:22:07;;;;;;;13.40;4.10;;;18.40;55.10;;;;;;4863136;29;20052;-48
2023/07/03 04:24:36;;;;;;;12.63;3.70;;;18.40;55.30;;;;;;4872765;29;20056;-46
2023/07/03 04:27:03;;;;;;;9.95;3.33;;;18.50;55.40;;;;;;4878013;29;20044;-48
2023/07/03 04:29:32;;;;;;;11.18;4.18;;;18.50;55.30;;;;;;4873824;29;20052;-47
2023/07/03 04:31:58;;;;;;;13.15;4.00;;;18.50;55.40;;;;;;4851623;29;20053;-50
2023/07/03 04:34:25;;;;;;;12.05;4.05;;;18.50;55.40;;;;;;4877927;29;20045;-50
2023/07/03 04:36:52;;;;;;;11.93;5.07;;;18.60;56.10;;;;;;4878347;29;20132;-50
2023/07/03 04:39:18;;;;;;;11.55;4.07;;;18.60;55.60;;;;;;4878928;29;20039;-49
2023/07/03 04:41:45;;;;;;;8.20;3.90;;;18.60;55.70;;;;;;4874820;29;20136;-49
2023/07/03 04:44:12;;;;;;;12.82;5.47;;;18.60;55.70;;;;;;4876983;29;20387;-48
2023/07/03 04:46:39;;;;;;;19.40;5.25;;;18.70;55.80;;;;;;4870800;29;20471;-50
2023/07/03 04:49:10;;;;;;;13.20;4.28;;;18.70;55.90;;;;;;4873426;29;20048;-47
2023/07/03 04:51:39;;;;;;;9.95;4.18;;;18.70;56.00;;;;;;4872676;29;20050;-50
2023/07/03 04:54:06;;;;;;;16.67;5.28;;;18.70;56.00;;;;;;4868979;29;20051;-50
2023/07/03 04:56:34;;;;;;;13.35;3.47;;;18.70;56.10;;;;;;4864156;29;20096;-51
2023/07/03 04:59:01;;;;;;;14.95;3.90;;;18.70;56.20;;;;;;4869599;29;20033;-50
2023/07/03 05:01:29;;;;;;;11.18;4.30;;;18.80;56.30;;;;;;4868525;29;20128;-51
2023/07/03 05:03:57;;;;;;;11.57;4.25;;;18.80;56.30;;;;;;4871516;29;20053;-51
2023/07/03 05:06:25;;;;;;;13.80;4.40;;;18.80;56.30;;;;;;4874953;29;20481;-51
2023/07/03 05:08:52;;;;;;;12.70;3.80;;;18.80;56.30;;;;;;4866882;29;20048;-51
2023/07/03 05:11:18;;;;;;;16.52;3.65;;;18.90;56.30;;;;;;4871535;29;20075;-47
2023/07/03 05:13:45;;;;;;;9.80;3.97;;;18.90;56.20;;;;;;4867868;29;20451;-52
2023/07/03 05:16:14;;;;;;;10.85;3.85;;;18.90;56.30;;;;;;4859305;29;20140;-51
2023/07/03 05:18:41;;;;;;;9.10;4.10;;;18.90;56.40;;;;;;4873311;29;20051;-51
2023/07/03 05:21:08;;;;;;;9.35;4.40;;;19.00;56.40;;;;;;4876950;29;20037;-51
2023/07/03 05:23:37;;;;;;;10.40;3.72;;;19.00;56.40;;;;;;4872195;29;20053;-48
2023/07/03 05:26:04;;;;;;;13.13;4.07;;;19.00;56.30;;;;;;4869622;29;20045;-50
2023/07/03 05:28:31;;;;;;;18.58;5.53;;;19.00;56.30;;;;;;4873797;29;20091;-50
2023/07/03 05:30:59;;;;;;;10.77;4.28;;;19.00;56.30;;;;;;4875581;29;20084;-50
2023/07/03 05:33:27;;;;;;;9.02;3.60;;;19.10;56.40;;;;;;4872386;29;20491;-47
2023/07/03 05:35:54;;;;;;;10.15;3.35;;;19.10;56.40;;;;;;4880980;29;20127;-47
2023/07/03 05:38:21;;;;;;;9.23;3.50;;;19.00;56.20;;;;;;4873405;29;20053;-51
2023/07/03 05:40:50;;;;;;;13.13;4.03;;;19.10;56.40;;;;;;4872718;29;20119;-48
2023/07/03 05:43:18;;;;;;;12.85;4.38;;;19.10;56.40;;;;;;4870622;29;20060;-50
2023/07/03 05:45:47;;;;;;;8.07;4.22;;;19.10;56.50;;;;;;4871082;29;20652;-47
2023/07/03 05:48:15;;;;;;;10.18;3.90;;;19.20;56.60;;;;;;4861155;29;20123;-50
2023/07/03 05:50:43;;;;;;;15.45;3.97;;;19.20;56.50;;;;;;4828762;29;20124;-51
2023/07/03 05:53:10;;;;;;;11.93;3.42;;;19.20;56.60;;;;;;4871539;29;20049;-51
2023/07/03 05:55:36;;;;;;;12.20;4.82;;;19.30;56.50;;;;;;4871998;29;20055;-50
2023/07/03 05:58:03;;;;;;;9.23;3.33;;;19.30;56.70;;;;;;4873763;29;20068;-52
2023/07/03 06:00:33;;;;;;;14.30;4.28;;;19.30;56.60;;;;;;4873254;29;20124;-49
2023/07/03 06:03:00;;;;;;;14.80;5.57;;;19.40;56.50;;;;;;4851732;29;20049;-50
2023/07/03 06:05:27;;;;;;;13.25;4.47;;;19.50;56.50;;;;;;4858610;29;20456;-51
2023/07/03 06:07:54;;;;;;;12.68;4.05;;;19.50;56.40;;;;;;4875632;29;20049;-51
2023/07/03 06:10:23;;;;;;;8.10;4.40;;;19.50;56.40;;;;;;4877351;29;20041;-51
2023/07/03 06:12:50;;;;;;;14.45;4.50;;;19.50;56.50;;;;;;4868642;29;20041;-51
2023/07/03 06:15:17;;;;;;;12.98;4.18;;;19.60;56.40;;;;;;4876593;29;20045;-50
2023/07/03 06:17:44;;;;;;;11.57;3.92;;;19.60;56.50;;;;;;4875540;29;20099;-51
2023/07/03 06:20:11;;;;;;;12.48;4.72;;;19.60;56.50;;;;;;4869538;29;20081;-50
2023/07/03 06:22:40;;;;;;;11.80;4.20;;;19.70;56.40;;;;;;4876195;29;20104;-51
2023/07/03 06:25:07;;;;;;;14.10;5.20;;;19.70;56.40;;;;;;4873060;29;20422;-51
2023/07/03 06:27:34;;;;;;;12.75;4.65;;;19.70;56.40;;;;;;4875893;29;20077;-51
2023/07/03 06:30:01;;;;;;;8.75;4.20;;;19.70;56.40;;;;;;4866441;29;20059;-51
2023/07/03 06:32:28;;;;;;;10.43;4.20;;;19.70;56.50;;;;;;4869163;29;20112;-49
2023/07/03 06:34:54;;;;;;;13.88;4.68;;;19.70;56.40;;;;;;4870050;29;20045;-47
2023/07/03 06:37:21;;;;;;;9.63;4.88;;;19.60;56.20;;;;;;4866625;29;20098;-50
2023/07/03 06:39:48;;;;;;;11.60;5.10;;;19.70;56.10;;;;;;4868260;29;20474;-49
2023/07/03 06:42:14;;;;;;;14.43;4.57;;;19.70;56.10;;;;;;4870466;29;20562;-48
2023/07/03 06:44:44;;;;;;;13.82;5.00;;;19.60;56.10;;;;;;4866895;29;20091;-50
2023/07/03 06:47:13;;;;;;;12.30;4.18;;;19.60;56.10;;;;;;4866725;29;20064;-49
2023/07/03 06:49:39;;;;;;;8.48;4.47;;;19.60;56.00;;;;;;4866117;29;20155;-49
2023/07/03 06:52:08;;;;;;;18.42;4.57;;;19.60;56.00;;;;;;4869585;29;20496;-51
2023/07/03 06:54:35;;;;;;;11.60;4.40;;;19.60;56.10;;;;;;4868962;29;20128;-51
2023/07/03 06:57:02;;;;;;;12.00;4.75;;;19.60;55.80;;;;;;4848851;29;20712;-50
2023/07/03 06:59:31;;;;;;;11.70;4.60;;;19.60;55.70;;;;;;4851579;29;20057;-51
2023/07/03 07:01:58;;;;;;;13.45;4.65;;;19.60;56.00;;;;;;4877719;29;20525;-51
2023/07/03 07:04:27;;;;;;;14.85;4.45;;;19.60;56.00;;;;;;4871656;29;20045;-47
2023/07/03 07:06:55;;;;;;;12.82;5.40;;;19.70;56.40;;;;;;4879625;29;20045;-50
2023/07/03 07:09:22;;;;;;;13.07;4.85;;;19.70;56.30;;;;;;4873213;29;20061;-49
2023/07/03 07:11:49;;;;;;;12.02;3.53;;;19.80;56.40;;;;;;4880644;29;20096;-47
2023/07/03 07:14:17;;;;;;;12.32;4.50;;;19.80;56.30;;;;;;4873286;29;20049;-46
2023/07/03 07:16:44;;;;;;;8.73;3.92;;;19.90;56.00;;;;;;4878560;29;20052;-48
2023/07/03 07:19:12;;;;;;;13.38;4.60;;;20.00;56.00;;;;;;4871580;29;20490;-51
2023/07/03 07:21:43;;;;;;;13.70;4.47;;;20.00;55.70;;;;;;4876247;29;20049;-50
2023/07/03 07:24:14;;;;;;;12.65;4.05;;;20.10;55.80;;;;;;4867965;29;20041;-48
2023/07/03 07:26:41;;;;;;;12.00;4.30;;;20.10;55.30;;;;;;4878458;29;20069;-51
2023/07/03 07:29:08;;;;;;;9.63;4.40;;;20.20;55.00;;;;;;4873725;29;20041;-49
2023/07/03 07:31:38;;;;;;;13.98;3.88;;;20.20;55.10;;;;;;4874715;29;20477;-50
2023/07/03 07:34:09;;;;;;;19.48;5.55;;;20.20;54.80;;;;;;4873370;29;20506;-46
2023/07/03 07:36:38;;;;;;;11.55;4.03;;;20.30;54.50;;;;;;4878339;29;20049;-49
2023/07/03 07:39:06;;;;;;;15.57;5.68;;;20.30;54.60;;;;;;4873971;29;20141;-48
2023/07/03 07:41:36;;;;;;;13.43;4.85;;;20.40;54.20;;;;;;4876550;29;20076;-47
2023/07/03 07:44:04;;;;;;;9.80;4.38;;;20.50;54.40;;;;;;4873990;29;20038;-51
2023/07/03 07:46:32;;;;;;;10.55;4.22;;;20.60;53.90;;;;;;4878395;29;20048;-49
2023/07/03 07:49:00;;;;;;;9.88;3.83;;;20.70;53.70;;;;;;4875426;29;20112;-50
2023/07/03 07:51:28;;;;;;;9.55;4.22;;;20.80;52.40;;;;;;4875782;29;20045;-51
2023/07/03 07:53:55;;;;;;;9.77;3.03;;;20.80;51.30;;;;;;4873950;29;20045;-49
2023/07/03 07:56:26;;;;;;;7.63;2.85;;;20.80;50.70;;;;;;4879462;29;20045;-50
2023/07/03 07:58:53;;;;;;;7.60;3.45;;;20.90;50.50;;;;;;4874239;29;20034;-50
2023/07/03 08:01:20;;;;;;;14.57;3.83;;;20.90;49.50;;;;;;4878728;29;20135;-51
2023/07/03 08:03:48;;;;;;;5.35;2.67;;;21.00;49.50;;;;;;4875240;29;20455;-51
2023/07/03 08:06:16;;;;;;;9.25;3.33;;;21.00;49.40;;;;;;4879533;29;20041;-51
2023/07/03 08:08:43;;;;;;;8.13;3.05;;;21.10;49.00;;;;;;4878007;29;20056;-52
2023/07/03 08:11:10;;;;;;;6.78;3.05;;;21.20;49.10;;;;;;4877447;29;20573;-51
2023/07/03 08:13:39;;;;;;;8.32;3.17;;;21.30;49.10;;;;;;4873566;29;20617;-49
2023/07/03 08:16:08;;;;;;;8.88;3.30;;;21.40;49.20;;;;;;4877651;29;20044;-52
2023/07/03 08:18:34;;;;;;;7.93;2.88;;;21.50;48.90;;;;;;4877485;29;20098;-51
2023/07/03 08:21:09;;;;;;;8.48;3.70;;;21.60;48.50;;;;;;4874079;29;20081;-51
2023/07/03 08:23:35;;;;;;;11.93;4.80;;;21.70;47.90;;;;;;4874043;29;20049;-50
2023/07/03 08:26:04;;;;;;;8.48;3.35;;;21.70;47.50;;;;;;4876852;29;20093;-51
2023/07/03 08:28:31;;;;;;;8.13;3.20;;;21.80;47.40;;;;;;4877112;29;20048;-50
2023/07/03 08:30:58;;;;;;;8.18;2.78;;;21.90;47.10;;;;;;4875169;29;20521;-50
2023/07/03 08:33:25;;;;;;;8.45;2.70;;;21.90;46.80;;;;;;4873549;29;20045;-50
2023/07/03 08:35:53;;;;;;;6.07;2.55;;;21.90;46.80;;;;;;4878457;29;20049;-51
2023/07/03 08:38:23;;;;;;;7.85;2.90;;;22.00;46.70;;;;;;4874120;29;20049;-49
2023/07/03 08:41:00;;;;;;;7.95;2.95;;;22.00;46.60;;;;;;4874429;29;20124;-51
2023/07/03 08:43:37;;;;;;;6.30;2.80;;;22.10;46.20;;;;;;4876700;29;20139;-51
2023/07/03 08:46:08;;;;;;;10.25;3.75;;;22.10;46.40;;;;;;4878434;29;20045;-50
2023/07/03 08:48:36;;;;;;;8.50;2.90;;;22.10;46.60;;;;;;4877060;29;20689;-51
2023/07/03 08:51:06;;;;;;;9.40;2.72;;;22.10;46.60;;;;;;4872981;29;20045;-51
2023/07/03 08:53:42;;;;;;;8.30;3.30;;;22.10;46.50;;;;;;4868505;29;20481;-51
2023/07/03 08:56:21;;;;;;;7.35;2.40;;;22.20;45.90;;;;;;4877433;29;20059;-48
2023/07/03 08:58:51;;;;;;;7.32;2.67;;;22.20;46.00;;;;;;4867773;29;20080;-51
2023/07/03 09:01:50;;;;;;;6.45;2.60;;;22.30;46.00;;;;;;4869832;29;20041;-48
2023/07/03 09:04:54;;;;;;;6.40;1.98;;;22.30;45.50;;;;;;4869725;29;20033;-50
2023/07/03 09:07:29;;;;;;;7.65;3.08;;;22.40;45.10;;;;;;4870840;29;20045;-51
2023/07/03 09:10:02;;;;;;;6.65;2.63;;;22.50;44.90;;;;;;4873500;29;20049;-51
2023/07/03 09:12:36;;;;;;;6.50;2.60;;;22.50;44.90;;;;;;4879099;29;20128;-51
2023/07/03 09:15:18;;;;;;;8.18;3.08;;;22.50;45.10;;;;;;4877091;29;20068;-51
2023/07/03 09:17:46;;;;;;;9.13;2.60;;;22.60;45.00;;;;;;4872112;29;20053;-48
2023/07/03 09:20:15;;;;;;;7.15;3.17;;;22.50;45.10;;;;;;4877062;29;20044;-51
2023/07/03 09:22:49;;;;;;;6.25;2.78;;;22.60;45.30;;;;;;4874262;29;20127;-52
2023/07/03 09:25:43;;;;;;;7.20;2.85;;;22.60;45.30;;;;;;4869534;29;20116;-50
2023/07/03 09:28:10;;;;;;;8.30;2.83;;;22.70;45.20;;;;;;4868538;29;20121;-51
2023/07/03 09:30:37;;;;;;;8.95;3.33;;;22.70;44.70;;;;;;4874686;29;20045;-48
2023/07/03 09:33:06;;;;;;;4.90;2.38;;;22.70;44.60;;;;;;4880315;29;20041;-50
2023/07/03 09:35:41;;;;;;;4.85;2.30;;;22.70;44.40;;;;;;4874004;29;20046;-49
2023/07/03 09:38:21;;;;;;;7.32;2.45;;;22.70;44.40;;;;;;4875423;29;20123;-52
2023/07/03 09:40:53;;;;;;;7.20;2.40;;;22.70;44.10;;;;;;4877779;29;20574;-52
2023/07/03 09:43:27;;;;;;;4.20;2.20;;;22.70;43.90;;;;;;4876028;29;20045;-51
2023/07/03 09:46:12;;;;;;;3.33;2.10;;;22.70;43.80;;;;;;4870688;29;20460;-49
2023/07/03 09:48:39;;;;;;;7.63;2.58;;;22.60;43.80;;;;;;4867891;29;20083;-51
2023/07/03 09:51:25;;;;;;;7.90;3.30;;;22.60;43.80;;;;;;4870843;29;20529;-49
2023/07/03 09:53:56;;;;;;;6.28;2.85;;;22.60;43.60;;;;;;4868061;29;20064;-48
2023/07/03 09:56:27;;;;;;;4.18;2.40;;;22.50;43.90;;;;;;4875848;29;20079;-50
2023/07/03 09:59:00;;;;;;;8.37;2.83;;;22.50;44.20;;;;;;4875560;29;20133;-47
2023/07/03 10:01:29;;;;;;;3.80;2.20;;;22.50;44.20;;;;;;4873857;29;20046;-54
2023/07/03 10:04:07;;;;;;;;;;;22.40;45.40;;;;;;4873246;29;20083;-54
2023/07/03 10:06:38;;;;;;;6.60;2.75;;;22.50;45.20;;;;;;4875342;29;19978;-56
2023/07/03 10:09:16;;;;;;;9.48;2.83;;;22.60;45.50;;;;;;4873678;29;20144;-54
2023/07/03 10:11:56;;;;;;;5.00;2.85;;;22.60;45.50;;;;;;4870804;29;20069;-53
2023/07/03 10:14:30;;;;;;;7.28;2.92;;;22.70;44.90;;;;;;4869212;29;20053;-54
2023/07/03 10:17:00;;;;;;;7.68;3.20;;;22.80;44.80;;;;;;4874920;29;20131;-55
2023/07/03 10:19:27;;;;;;;6.60;3.00;;;22.80;44.70;;;;;;4875441;29;20414;-55
2023/07/03 10:21:57;;;;;;;6.00;2.88;;;23.00;45.30;;;;;;4868476;29;20140;-53
2023/07/03 10:24:24;;;;;;;9.18;4.40;;;22.90;45.30;;;;;;4868409;29;20558;-53
2023/07/03 10:26:57;;;;;;;9.50;2.70;;;23.00;46.10;;;;;;4875006;29;20132;-56
2023/07/03 10:29:29;;;;;;;7.95;3.60;;;23.10;46.00;;;;;;4874939;29;20057;-55
2023/07/03 10:32:06;;;;;;;9.73;3.30;;;23.30;45.80;;;;;;4867315;29;20053;-52
2023/07/03 10:34:42;;;;;;;4.82;3.15;;;23.40;45.00;;;;;;4874509;29;20500;-51
2023/07/03 10:37:11;;;;;;;6.78;2.70;;;23.60;44.90;;;;;;4875057;29;20102;-51
2023/07/03 10:40:04;;;;;;;7.13;3.05;;;23.70;45.00;;;;;;4874695;29;20520;-52
2023/07/03 10:42:35;;;;;;;8.55;4.28;;;23.80;44.90;;;;;;4870871;29;20480;-52
2023/07/03 10:45:21;;;;;;;8.48;3.60;;;23.90;45.50;;;;;;4856148;29;20055;-52
2023/07/03 10:48:01;;;;;;;7.57;3.28;;;24.00;45.10;;;;;;4868668;29;20041;-51
2023/07/03 10:50:35;;;;;;;7.05;3.45;;;24.00;45.20;;;;;;4866929;29;20148;-52
2023/07/03 10:53:41;;;;;;;9.10;3.38;;;24.10;45.30;;;;;;4863716;29;20052;-52
2023/07/03 10:56:24;;;;;;;10.00;3.60;;;24.10;44.50;;;;;;4877940;29;20068;-53
2023/07/03 10:59:03;;;;;;;6.57;3.08;;;24.20;43.60;;;;;;4875237;29;20120;-52
2023/07/03 11:01:49;;;;;;;6.10;3.05;;;24.20;43.00;;;;;;4869227;29;20041;-48
2023/07/03 11:04:20;;;;;;;6.55;3.55;;;24.10;43.30;;;;;;4875198;29;20056;-49
2023/07/03 11:06:57;;;;;;;5.65;3.15;;;23.90;43.60;;;;;;4875316;29;20045;-52
2023/07/03 11:09:47;;;;;;;7.57;3.47;;;23.80;43.80;;;;;;4868141;29;20463;-51
2023/07/03 11:12:26;;;;;;;5.53;3.15;;;23.60;44.10;;;;;;4867951;29;20422;-51
2023/07/03 11:15:08;;;;;;;7.22;3.95;;;23.50;44.30;;;;;;4871488;29;20626;-52
2023/07/03 11:17:52;;;;;;;9.35;3.63;;;23.30;44.40;;;;;;4868792;29;20144;-52
2023/07/03 11:20:36;;;;;;;8.95;2.97;;;23.20;44.70;;;;;;4870316;29;20105;-49
2023/07/03 11:23:22;;;;;;;8.00;4.10;;;23.10;45.00;;;;;;4867065;29;20044;-51
2023/07/03 11:26:05;;;;;;;6.13;2.80;;;23.00;45.60;;;;;;4876534;29;20068;-50
2023/07/03 11:28:40;;;;;;;7.38;3.22;;;23.00;46.20;;;;;;4862842;29;20123;-50
2023/07/03 11:31:09;;;;;;;7.53;4.05;;;23.00;46.40;;;;;;4864631;29;20511;-49
2023/07/03 11:33:37;;;;;;;8.90;3.63;;;23.10;45.80;;;;;;4867866;29;20474;-52
2023/07/03 11:36:27;;;;;;;8.07;4.38;;;23.30;46.40;;;;;;4875808;29;20568;-52
2023/07/03 11:39:24;;;;;;;6.70;3.25;;;23.50;46.30;;;;;;4869356;29;20396;-51
2023/07/03 11:42:01;;;;;;;8.27;3.83;;;23.70;45.70;;;;;;4872606;29;20041;-49
2023/07/03 11:44:33;;;;;;;6.90;3.38;;;23.80;45.60;;;;;;4869322;29;20242;-52
2023/07/03 11:47:06;;;;;;;7.75;3.83;;;24.00;45.80;;;;;;4875751;29;20076;-50
2023/07/03 11:49:44;;;;;;;5.75;3.10;;;24.10;45.30;;;;;;4866446;29;20085;-50
2023/07/03 11:52:13;;;;;;;10.05;3.83;;;24.30;45.30;;;;;;4871050;29;20099;-53
2023/07/03 11:54:41;;;;;;;5.72;3.35;;;24.30;44.40;;;;;;4875820;29;20052;-52
2023/07/03 11:57:32;;;;;;;6.97;3.33;;;24.40;44.80;;;;;;4878210;29;20051;-52
2023/07/03 12:00:27;;;;;;;7.63;3.72;;;24.50;44.20;;;;;;4878033;29;20116;-52
2023/07/03 12:02:58;;;;;;;7.10;2.78;;;24.60;43.70;;;;;;4878714;29;20069;-50
2023/07/03 12:05:58;;;;;;;5.83;2.87;;;24.50;43.30;;;;;;4871461;29;20499;-50
2023/07/03 12:08:25;;;;;;;7.43;3.17;;;24.50;42.90;;;;;;4824128;29;20060;-52
2023/07/03 12:11:16;;;;;;;5.75;3.28;;;24.30;43.10;;;;;;4871750;29;20087;-51
2023/07/03 12:13:50;;;;;;;6.50;3.20;;;24.30;43.40;;;;;;4838822;29;20054;-51
2023/07/03 12:16:21;;;;;;;5.85;3.08;;;24.30;43.50;;;;;;4840400;29;20416;-51
2023/07/03 12:19:09;;;;;;;9.52;4.30;;;24.30;43.50;;;;;;4839514;29;20511;-52
2023/07/03 12:21:45;;;;;;;8.95;3.60;;;24.30;43.20;;;;;;4840752;29;20046;-53
2023/07/03 12:24:27;;;;;;;6.60;2.97;;;24.40;42.80;;;;;;4840500;29;20054;-53
2023/07/03 12:27:08;;;;;;;6.50;3.15;;;24.50;42.60;;;;;;4840977;29;20048;-52
2023/07/03 12:29:47;;;;;;;8.40;3.30;;;24.50;42.40;;;;;;4840723;29;20089;-51
2023/07/03 12:32:23;;;;;;;10.02;3.33;;;24.70;41.70;;;;;;4839920;29;20132;-53
2023/07/03 12:34:50;;;;;;;7.18;2.70;;;24.80;41.30;;;;;;4831367;29;20050;-53
2023/07/03 12:37:24;;;;;;;7.00;3.15;;;24.90;41.40;;;;;;4841137;29;20080;-52
2023/07/03 12:39:51;;;;;;;5.82;2.70;;;24.90;41.00;;;;;;4840296;29;20559;-52
2023/07/03 12:42:24;;;;;;;6.78;3.03;;;25.10;41.30;;;;;;4825125;29;20080;-51
2023/07/03 12:44:52;;;;;;;6.15;2.58;;;25.20;41.40;;;;;;4847940;29;20090;-54
2023/07/03 12:47:24;;;;;;;8.77;3.15;;;25.30;40.70;;;;;;4837332;29;20046;-54
2023/07/03 12:49:58;;;;;;;7.10;2.30;;;25.40;40.10;;;;;;4828597;29;20054;-54
2023/07/03 12:52:28;;;;;;;6.13;2.30;;;25.50;39.80;;;;;;4838412;29;20110;-54
2023/07/03 12:54:56;;;;;;;5.38;2.40;;;25.70;39.70;;;;;;4839526;29;20792;-54
2023/07/03 12:57:28;;;;;;;7.68;2.60;;;25.90;39.40;;;;;;4835855;29;20049;-52
2023/07/03 12:59:55;;;;;;;5.95;2.42;;;26.00;39.00;;;;;;4842044;29;20046;-54
2023/07/03 13:02:26;;;;;;;9.18;2.67;;;26.20;38.70;;;;;;4838349;29;20509;-53
2023/07/03 13:05:09;;;;;;;5.13;2.58;;;26.20;37.60;;;;;;4841423;29;20053;-52
2023/07/03 13:07:36;;;;;;;7.00;2.55;;;26.30;37.70;;;;;;4835753;29;20045;-53